Time;durP1;ratioP1;P1;durP2;ratioP2;P2;SDS_P1;SDS_P2;PMS_P1;PMS_P2;Temp;Humidity;BMP_temperature;BMP_pressure;BME280_temperature;BME280_humidity;BME280_pressure;Samples;Min_cycle;Max_cycle;Signal;HPM_P1;HPM_P2
2021/12/22 07:16:39;;;;;;;19.42;12.32;;;5.20;99.90;;;;;;5115461;27;20117;-75
2021/12/22 07:19:05;;;;;;;16.42;12.50;;;4.90;99.90;;;;;;5106169;28;20474;-76
2021/12/22 07:21:31;;;;;;;17.30;12.52;;;5.00;99.90;;;;;;5102395;28;20032;-76
2021/12/22 07:23:57;;;;;;;15.98;12.43;;;5.00;99.90;;;;;;5108076;28;20028;-75
2021/12/22 07:26:22;;;;;;;16.02;12.15;;;5.00;99.90;;;;;;5105126;28;20031;-74
2021/12/22 07:28:49;;;;;;;14.85;11.80;;;5.10;99.90;;;;;;5097611;28;20122;-74
2021/12/22 07:31:16;;;;;;;21.30;13.82;;;5.10;99.90;;;;;;5106280;28;20367;-74
2021/12/22 07:33:55;;;;;;;16.55;12.27;;;5.20;99.90;;;;;;5106751;28;20481;-75
2021/12/22 07:36:21;;;;;;;18.02;12.32;;;5.20;99.90;;;;;;5099633;28;20036;-76
2021/12/22 07:38:58;;;;;;;16.73;11.63;;;5.20;99.90;;;;;;5105387;28;20020;-75
2021/12/22 07:41:24;;;;;;;15.52;11.57;;;5.20;99.90;;;;;;5100430;28;20043;-76
2021/12/22 07:43:50;;;;;;;15.57;11.93;;;5.20;99.90;;;;;;5103947;28;20092;-75
2021/12/22 07:46:16;;;;;;;15.63;12.02;;;5.20;99.90;;;;;;5105770;28;20106;-75
2021/12/22 07:48:41;;;;;;;16.45;12.18;;;5.20;99.90;;;;;;5104614;28;20390;-75
2021/12/22 07:51:07;;;;;;;16.55;11.20;;;5.30;99.90;;;;;;5099767;28;20028;-74
2021/12/22 07:53:33;;;;;;;16.73;12.25;;;5.30;99.90;;;;;;5103224;28;20043;-74
2021/12/22 07:55:59;;;;;;;16.27;11.95;;;5.30;99.90;;;;;;5103014;28;20573;-75
2021/12/22 07:58:25;;;;;;;16.45;11.63;;;5.30;99.90;;;;;;5101038;28;20035;-76
2021/12/22 08:00:53;;;;;;;16.80;11.88;;;5.30;99.90;;;;;;5095238;28;20032;-75
2021/12/22 08:03:19;;;;;;;15.27;11.15;;;5.30;99.90;;;;;;5108089;28;20073;-74
2021/12/22 08:05:45;;;;;;;18.70;12.70;;;5.30;99.90;;;;;;5098695;28;20031;-75
2021/12/22 08:08:11;;;;;;;14.13;10.27;;;5.30;99.90;;;;;;5104459;28;20032;-75
2021/12/22 08:10:37;;;;;;;15.68;10.85;;;5.40;99.90;;;;;;5102003;28;20118;-75
2021/12/22 08:13:03;;;;;;;14.20;10.60;;;5.30;99.90;;;;;;5104579;28;20027;-76
2021/12/22 08:15:29;;;;;;;18.75;11.40;;;5.40;99.90;;;;;;5099550;28;20413;-76
2021/12/22 08:17:56;;;;;;;17.30;11.52;;;5.40;99.90;;;;;;5101841;28;20023;-76
2021/12/22 08:20:23;;;;;;;19.45;10.68;;;5.50;99.90;;;;;;5099612;28;20032;-75
2021/12/22 08:22:49;;;;;;;14.48;10.93;;;5.50;99.90;;;;;;5101763;28;20066;-76
2021/12/22 08:25:15;;;;;;;18.08;12.18;;;5.50;99.90;;;;;;5092686;28;20043;-76
2021/12/22 08:27:40;;;;;;;15.40;11.15;;;5.50;99.90;;;;;;5090877;28;20478;-76
2021/12/22 08:30:07;;;;;;;19.95;12.23;;;5.50;99.90;;;;;;5091358;28;20116;-75
2021/12/22 08:32:34;;;;;;;17.42;11.85;;;5.50;99.90;;;;;;5092030;28;20074;-75
2021/12/22 08:35:02;;;;;;;14.45;10.70;;;5.60;99.90;;;;;;5091593;28;20047;-75
2021/12/22 08:40:17;;;;;;;18.52;11.18;;;5.70;99.90;;;;;;5077708;28;20115;-76
2021/12/22 08:42:44;;;;;;;16.88;10.45;;;5.80;99.90;;;;;;5088932;28;20024;-76
2021/12/22 08:45:10;;;;;;;19.10;11.57;;;5.90;99.90;;;;;;5092852;28;20525;-74
2021/12/22 08:47:36;;;;;;;22.70;12.60;;;5.90;99.90;;;;;;5085923;28;20056;-75
2021/12/22 08:50:03;;;;;;;14.88;9.88;;;5.90;99.90;;;;;;5092704;28;20067;-75
2021/12/22 08:52:29;;;;;;;10.98;8.35;;;5.80;99.90;;;;;;5083021;28;20052;-75
2021/12/22 08:54:55;;;;;;;12.85;9.23;;;5.70;99.90;;;;;;5092234;28;20063;-75
2021/12/22 08:57:20;;;;;;;11.70;8.90;;;5.60;99.90;;;;;;5089948;28;20032;-75
2021/12/22 08:59:46;;;;;;;12.75;8.52;;;5.60;99.90;;;;;;5093077;28;20077;-75
2021/12/22 09:02:12;;;;;;;13.63;8.88;;;5.50;99.90;;;;;;5089333;28;20368;-75
2021/12/22 09:04:38;;;;;;;12.73;9.50;;;5.60;99.90;;;;;;5087898;28;20032;-76
2021/12/22 09:07:04;;;;;;;13.73;8.60;;;5.80;99.90;;;;;;5088288;28;20076;-75
2021/12/22 09:09:31;;;;;;;15.70;8.63;;;6.00;99.90;;;;;;5092059;28;20504;-75
2021/12/22 09:11:56;;;;;;;11.43;8.77;;;6.10;99.90;;;;;;5092075;28;20031;-75
2021/12/22 09:14:24;;;;;;;14.15;9.05;;;6.10;99.90;;;;;;5091013;28;20028;-76
2021/12/22 09:16:50;;;;;;;13.48;8.93;;;6.10;99.90;;;;;;5086714;28;20029;-76
2021/12/22 09:19:16;;;;;;;11.27;8.02;;;6.30;99.90;;;;;;5094012;28;20024;-76
2021/12/22 09:21:42;;;;;;;11.35;8.27;;;6.30;99.90;;;;;;5093769;28;20394;-75
2021/12/22 09:24:08;;;;;;;10.98;7.95;;;6.30;99.90;;;;;;5091137;28;20020;-75
2021/12/22 09:26:34;;;;;;;14.73;8.30;;;6.30;99.90;;;;;;5091173;28;20551;-75
2021/12/22 09:29:00;;;;;;;14.13;8.30;;;6.10;99.90;;;;;;5091602;28;20028;-75
2021/12/22 09:31:26;;;;;;;14.98;9.25;;;6.10;99.90;;;;;;5092105;28;20024;-75
2021/12/22 09:33:52;;;;;;;15.50;8.65;;;6.10;99.90;;;;;;5090952;28;20028;-75
2021/12/22 09:36:19;;;;;;;10.48;8.02;;;6.10;99.90;;;;;;5085324;28;20036;-75
2021/12/22 09:38:45;;;;;;;13.48;9.18;;;6.10;99.90;;;;;;5091570;28;20020;-75
2021/12/22 09:41:12;;;;;;;13.68;8.27;;;6.00;99.90;;;;;;5088461;28;20044;-75
2021/12/22 09:43:38;;;;;;;12.68;8.98;;;6.10;99.90;;;;;;5092459;28;20020;-75
2021/12/22 09:46:09;;;;;;;10.55;8.35;;;6.10;99.90;;;;;;5090879;28;20032;-75
2021/12/22 09:53:54;;;;;;;11.23;8.13;;;6.30;99.90;;;;;;5092473;28;20039;-75
2021/12/22 09:56:24;;;;;;;14.90;8.43;;;6.40;99.90;;;;;;5090663;28;20032;-75
2021/12/22 09:58:50;;;;;;;10.85;8.38;;;6.50;99.90;;;;;;5089740;28;20051;-76
2021/12/22 10:01:22;;;;;;;10.35;8.50;;;6.40;99.90;;;;;;5090646;28;20024;-76
2021/12/22 10:03:52;;;;;;;12.60;8.35;;;6.40;99.90;;;;;;5092312;28;20078;-81
2021/12/22 10:06:18;;;;;;;10.75;8.15;;;6.40;99.90;;;;;;5087141;28;20028;-81
2021/12/22 10:09:04;;;;;;;12.93;8.40;;;6.40;99.90;;;;;;5090328;28;20035;-78
2021/12/22 10:11:33;;;;;;;14.52;8.02;;;6.50;99.90;;;;;;5090839;28;20478;-81
2021/12/22 10:13:59;;;;;;;12.73;8.48;;;6.60;99.90;;;;;;5086293;28;20028;-75
2021/12/22 10:16:27;;;;;;;11.60;8.27;;;6.80;99.90;;;;;;5083702;28;20502;-74
2021/12/22 10:19:05;;;;;;;14.25;8.05;;;6.90;99.90;;;;;;5091029;28;20020;-76
2021/12/22 10:21:33;;;;;;;11.60;8.15;;;7.00;99.90;;;;;;5086838;28;20028;-75
2021/12/22 10:24:03;;;;;;;12.52;7.90;;;7.10;99.90;;;;;;5091924;28;20012;-75
2021/12/22 10:26:28;;;;;;;15.18;8.07;;;7.20;99.90;;;;;;5090428;28;20031;-75
2021/12/22 10:28:59;;;;;;;15.43;8.10;;;7.20;99.90;;;;;;5092186;28;20047;-76
2021/12/22 10:31:37;;;;;;;10.77;7.95;;;7.20;99.90;;;;;;5090608;28;20115;-75
2021/12/22 10:34:28;;;;;;;11.38;8.40;;;7.20;99.90;;;;;;5090866;28;20107;-75
2021/12/22 10:36:55;;;;;;;11.27;7.82;;;7.20;99.90;;;;;;5088118;28;20063;-74
2021/12/22 10:39:29;;;;;;;11.57;8.07;;;7.30;99.90;;;;;;5086792;28;20509;-74
2021/12/22 10:42:21;;;;;;;11.10;7.90;;;7.40;99.90;;;;;;5090014;28;20040;-74
2021/12/22 10:44:47;;;;;;;14.07;8.33;;;7.50;99.90;;;;;;5087325;28;20495;-75
2021/12/22 10:47:14;;;;;;;11.65;8.27;;;7.50;99.90;;;;;;5090781;28;20039;-74
2021/12/22 10:49:40;;;;;;;12.60;7.82;;;7.50;99.90;;;;;;5072262;28;20047;-75
2021/12/22 10:52:06;;;;;;;10.88;7.43;;;7.50;99.90;;;;;;5090522;28;20471;-74
2021/12/22 10:54:34;;;;;;;10.52;8.02;;;7.40;99.90;;;;;;5091283;28;20028;-74
2021/12/22 10:57:01;;;;;;;10.68;7.72;;;7.40;99.90;;;;;;5089939;28;20060;-74
2021/12/22 10:59:27;;;;;;;11.45;8.07;;;7.40;99.90;;;;;;5073996;28;20495;-75
2021/12/22 11:02:06;;;;;;;11.02;8.07;;;7.40;99.90;;;;;;5088898;28;20066;-75
2021/12/22 11:04:34;;;;;;;11.55;8.15;;;7.50;99.90;;;;;;5088289;28;20149;-75
2021/12/22 11:07:16;;;;;;;9.75;7.25;;;7.50;99.90;;;;;;5089378;28;20089;-74
2021/12/22 11:09:42;;;;;;;9.80;7.70;;;7.60;99.90;;;;;;5090892;28;20073;-74
2021/12/22 11:12:11;;;;;;;9.90;7.97;;;7.60;99.90;;;;;;5090123;28;20061;-75
2021/12/22 11:14:41;;;;;;;13.45;8.18;;;7.70;99.90;;;;;;5090920;28;20089;-75
2021/12/22 11:17:13;;;;;;;10.70;8.18;;;7.80;99.90;;;;;;5089828;28;20032;-75
2021/12/22 11:19:48;;;;;;;8.63;7.38;;;7.90;99.90;;;;;;5090647;28;20039;-75
2021/12/22 11:22:15;;;;;;;9.13;7.47;;;7.90;99.90;;;;;;5090452;28;20024;-74
2021/12/22 11:24:47;;;;;;;12.35;7.70;;;7.90;99.90;;;;;;5071882;28;20028;-75
2021/12/22 11:27:16;;;;;;;16.80;7.10;;;8.00;99.90;;;;;;5088937;28;20038;-75
2021/12/22 11:29:45;;;;;;;11.35;7.55;;;8.10;99.90;;;;;;5090648;28;20035;-75
2021/12/22 11:32:13;;;;;;;13.38;8.18;;;8.10;99.90;;;;;;5077759;28;20032;-75
2021/12/22 11:34:41;;;;;;;14.45;7.97;;;8.20;99.90;;;;;;5090845;28;20047;-75
2021/12/22 11:37:10;;;;;;;11.00;7.68;;;8.20;99.90;;;;;;5079115;28;20032;-75
2021/12/22 11:39:37;;;;;;;11.10;7.40;;;8.20;99.90;;;;;;5100033;28;20417;-75
2021/12/22 11:42:07;;;;;;;9.88;7.40;;;8.30;99.90;;;;;;5075867;28;20108;-75
2021/12/22 11:44:33;;;;;;;10.55;7.35;;;8.30;99.90;;;;;;5088099;28;20105;-75
2021/12/22 11:47:08;;;;;;;10.00;7.15;;;8.30;99.90;;;;;;5086482;28;20024;-75
2021/12/22 11:49:34;;;;;;;12.02;7.05;;;8.40;99.90;;;;;;5088024;28;20051;-75
2021/12/22 11:52:02;;;;;;;12.63;7.88;;;8.40;99.90;;;;;;5085965;28;20032;-75
2021/12/22 11:54:28;;;;;;;12.20;7.40;;;8.40;99.90;;;;;;5088100;28;20043;-76
2021/12/22 11:56:58;;;;;;;7.80;7.00;;;8.40;99.90;;;;;;5086133;28;20028;-75
2021/12/22 11:59:32;;;;;;;9.68;7.13;;;8.50;99.90;;;;;;5083502;28;20032;-75
2021/12/22 12:02:23;;;;;;;10.27;7.10;;;8.40;99.90;;;;;;5087595;28;20028;-76
2021/12/22 12:04:52;;;;;;;10.93;7.25;;;8.50;99.90;;;;;;5090970;28;20035;-76
2021/12/22 12:07:49;;;;;;;8.10;6.65;;;8.70;99.90;;;;;;5090691;28;20024;-76
2021/12/22 12:10:33;;;;;;;13.40;7.50;;;9.20;99.90;;;;;;5087985;28;20016;-74
2021/12/22 12:13:06;;;;;;;8.93;6.68;;;9.60;99.90;;;;;;5091140;28;20032;-75
2021/12/22 12:22:12;;;;;;;7.57;6.43;;;10.00;99.90;;;;;;5090380;28;20151;-76
2021/12/22 12:24:39;;;;;;;8.95;7.18;;;9.80;99.90;;;;;;5091122;28;20054;-75
2021/12/22 12:27:43;;;;;;;8.30;6.43;;;10.20;99.90;;;;;;5089765;28;20047;-75
2021/12/22 12:30:15;;;;;;;7.88;6.32;;;10.70;99.90;;;;;;5090586;28;20081;-74
2021/12/22 12:32:40;;;;;;;9.40;7.13;;;11.90;99.90;;;;;;5079631;28;20020;-74
2021/12/22 12:35:18;;;;;;;9.07;6.00;;;13.90;99.90;;;;;;5090749;28;20032;-75
2021/12/22 12:38:01;;;;;;;8.77;6.10;;;15.70;95.80;;;;;;5090824;28;20107;-76
2021/12/22 12:40:55;;;;;;;9.00;6.50;;;16.70;91.20;;;;;;5088044;28;20032;-75
2021/12/22 12:43:43;;;;;;;10.63;6.38;;;16.60;87.10;;;;;;5086531;28;20024;-74
2021/12/22 12:49:04;;;;;;;8.48;6.65;;;13.20;91.30;;;;;;5088732;28;20098;-75
2021/12/22 12:51:34;;;;;;;13.77;7.32;;;12.60;92.80;;;;;;5089278;28;20016;-75
2021/12/22 12:54:03;;;;;;;8.60;6.85;;;13.40;93.30;;;;;;5090954;28;20390;-74
2021/12/22 12:56:31;;;;;;;8.48;6.63;;;14.80;91.00;;;;;;5089085;28;20509;-76
2021/12/22 12:58:58;;;;;;;10.80;7.18;;;15.90;87.40;;;;;;5090372;28;20032;-75
2021/12/22 13:01:52;;;;;;;9.45;6.70;;;15.20;84.90;;;;;;5089386;28;20035;-76
2021/12/22 13:04:29;;;;;;;10.80;7.25;;;13.10;90.10;;;;;;5073932;28;20483;-75
2021/12/22 13:07:09;;;;;;;12.45;7.38;;;11.30;92.50;;;;;;5076984;28;20032;-75
2021/12/22 13:09:37;;;;;;;11.23;6.95;;;10.00;95.90;;;;;;5087578;28;20032;-75
2021/12/22 13:18:01;;;;;;;10.73;7.55;;;8.50;99.90;;;;;;5090397;28;20417;-75
2021/12/22 13:20:30;;;;;;;13.63;7.38;;;8.40;99.90;;;;;;5088894;28;20038;-76
2021/12/22 13:22:58;;;;;;;12.13;7.95;;;8.30;99.90;;;;;;5089119;28;20721;-75
2021/12/22 13:25:29;;;;;;;13.68;8.25;;;8.30;99.90;;;;;;5088976;28;20034;-75
2021/12/22 13:28:07;;;;;;;10.13;8.47;;;8.40;99.90;;;;;;5090305;28;20024;-76
2021/12/22 13:30:47;;;;;;;13.10;7.95;;;8.30;99.90;;;;;;5088873;28;20286;-76
2021/12/22 13:33:13;;;;;;;11.73;7.93;;;8.20;99.90;;;;;;5080925;28;20074;-75
2021/12/22 13:35:56;;;;;;;13.82;7.78;;;8.20;99.90;;;;;;5088471;28;20117;-76
2021/12/22 13:38:43;;;;;;;10.95;8.20;;;8.20;99.90;;;;;;5085964;28;20107;-75
2021/12/22 13:41:14;;;;;;;13.23;8.40;;;8.10;99.90;;;;;;5087336;28;20123;-75
2021/12/22 13:43:41;;;;;;;14.85;7.57;;;8.20;99.90;;;;;;5089944;28;20077;-75
2021/12/22 13:46:11;;;;;;;9.45;7.05;;;8.40;99.90;;;;;;5088074;28;20441;-75
2021/12/22 13:49:03;;;;;;;11.30;7.72;;;9.10;99.90;;;;;;5089701;28;20478;-75
2021/12/22 13:51:47;;;;;;;10.30;7.65;;;9.30;99.90;;;;;;5086726;28;20509;-75
2021/12/22 13:54:28;;;;;;;13.55;8.43;;;9.00;99.90;;;;;;5088749;28;20085;-75
2021/12/22 13:57:05;;;;;;;10.82;8.13;;;8.40;99.90;;;;;;5088334;28;20062;-75
2021/12/22 13:59:33;;;;;;;12.38;8.73;;;7.80;99.90;;;;;;5086231;28;20689;-75
2021/12/22 14:02:02;;;;;;;15.23;9.48;;;7.40;99.90;;;;;;5088224;28;20042;-76
2021/12/22 14:04:31;;;;;;;15.80;8.30;;;7.10;99.90;;;;;;5089100;28;20027;-75
2021/12/22 14:07:08;;;;;;;13.07;9.32;;;6.90;99.90;;;;;;5088006;28;20085;-75
2021/12/22 14:09:42;;;;;;;13.25;9.00;;;6.70;99.90;;;;;;5089253;28;20123;-75
2021/12/22 14:12:13;;;;;;;15.30;8.73;;;6.60;99.90;;;;;;5088882;28;20358;-76
2021/12/22 14:14:47;;;;;;;12.88;9.20;;;6.40;99.90;;;;;;5093288;28;20036;-76
2021/12/22 14:17:19;;;;;;;13.43;9.23;;;6.30;99.90;;;;;;5091007;28;20561;-76
2021/12/22 14:19:51;;;;;;;;;;;6.10;99.90;;;;;;5092101;28;20378;-75
2021/12/22 14:22:22;;;;;;;15.85;9.20;;;6.00;99.90;;;;;;5080924;28;19908;-75
2021/12/22 14:25:05;;;;;;;10.63;8.80;;;5.90;99.90;;;;;;5072018;28;20109;-75
2021/12/22 14:27:38;;;;;;;14.68;9.60;;;6.00;99.90;;;;;;5090989;28;20024;-75
2021/12/22 14:30:19;;;;;;;13.52;9.18;;;6.30;99.90;;;;;;5091634;28;20034;-76
2021/12/22 14:33:15;;;;;;;14.18;9.30;;;6.40;99.90;;;;;;5090814;28;20088;-75
2021/12/22 14:35:51;;;;;;;13.95;9.15;;;6.40;99.90;;;;;;5084001;28;20048;-75
2021/12/22 14:38:20;;;;;;;14.85;9.77;;;6.20;99.90;;;;;;5088445;28;20119;-76
2021/12/22 14:41:05;;;;;;;12.80;9.48;;;6.00;99.90;;;;;;5090084;28;20027;-76
2021/12/22 14:43:38;;;;;;;14.25;9.93;;;5.80;99.90;;;;;;5091584;28;20114;-75
2021/12/22 14:46:04;;;;;;;16.55;10.10;;;5.60;99.90;;;;;;5090099;28;20062;-75
2021/12/22 14:48:36;;;;;;;15.02;10.13;;;5.60;99.90;;;;;;5091195;28;20038;-75
2021/12/22 14:51:16;;;;;;;15.00;9.38;;;5.50;99.90;;;;;;5089950;28;20091;-75
2021/12/22 14:53:46;;;;;;;14.65;10.23;;;5.40;99.90;;;;;;5082723;28;20054;-75
2021/12/22 14:56:18;;;;;;;16.70;10.20;;;5.30;99.90;;;;;;5089393;28;20031;-76
2021/12/22 14:58:46;;;;;;;17.10;10.63;;;5.20;99.90;;;;;;5091478;28;20441;-76
2021/12/22 15:01:12;;;;;;;14.50;10.55;;;5.10;99.90;;;;;;5088495;28;20031;-75
2021/12/22 15:03:38;;;;;;;14.95;10.45;;;5.10;99.90;;;;;;5091550;28;20194;-76
2021/12/22 15:06:09;;;;;;;17.48;9.88;;;5.00;99.90;;;;;;5089561;28;20028;-75
2021/12/22 15:08:38;;;;;;;21.05;10.38;;;4.90;99.90;;;;;;5091355;28;20028;-75
2021/12/22 15:11:06;;;;;;;13.15;9.25;;;4.90;99.90;;;;;;5089621;28;20085;-75
2021/12/22 15:13:31;;;;;;;16.85;10.40;;;4.80;99.90;;;;;;5091281;28;20133;-75
2021/12/22 15:15:57;;;;;;;18.48;10.43;;;4.80;99.90;;;;;;5089601;28;20581;-75
2021/12/22 15:18:23;;;;;;;15.23;10.77;;;4.80;99.90;;;;;;5091070;28;20247;-75
2021/12/22 15:20:50;;;;;;;15.70;10.50;;;4.70;99.90;;;;;;5089759;28;20490;-75
2021/12/22 15:23:16;;;;;;;19.30;10.50;;;4.60;99.90;;;;;;5091020;28;20028;-76
2021/12/22 15:25:43;;;;;;;17.52;10.15;;;4.60;99.90;;;;;;5089670;28;20032;-75
2021/12/22 15:28:10;;;;;;;13.80;9.85;;;4.50;99.90;;;;;;5090905;28;20111;-75
2021/12/22 15:30:39;;;;;;;17.08;10.48;;;4.50;99.90;;;;;;5089789;28;20024;-75
2021/12/22 15:33:05;;;;;;;16.33;9.68;;;4.50;99.90;;;;;;5089111;28;20618;-74
2021/12/22 15:35:32;;;;;;;10.77;9.50;;;4.50;99.90;;;;;;5089522;28;20043;-75
2021/12/22 15:37:58;;;;;;;19.63;11.18;;;4.50;99.90;;;;;;5093868;28;20111;-75
2021/12/22 15:40:23;;;;;;;16.92;11.07;;;4.60;99.90;;;;;;5090727;28;20450;-75
2021/12/22 15:42:49;;;;;;;15.88;10.30;;;4.60;99.90;;;;;;5091379;28;20139;-74
2021/12/22 15:45:15;;;;;;;16.30;9.95;;;4.60;99.90;;;;;;5091301;28;20035;-75
2021/12/22 15:47:42;;;;;;;19.40;10.63;;;4.60;99.90;;;;;;5089846;28;20032;-74
2021/12/22 15:50:10;;;;;;;16.08;10.43;;;4.60;99.90;;;;;;5091028;28;20150;-75
2021/12/22 15:52:39;;;;;;;12.52;10.00;;;4.70;99.90;;;;;;5090185;28;20655;-76
2021/12/22 15:55:06;;;;;;;13.35;10.63;;;4.70;99.90;;;;;;5090538;28;20020;-75
2021/12/22 15:57:32;;;;;;;15.23;10.18;;;4.70;99.90;;;;;;5089769;28;20036;-75
2021/12/22 15:59:58;;;;;;;18.38;10.55;;;4.80;99.90;;;;;;5090854;28;20102;-74
2021/12/22 16:02:25;;;;;;;14.63;10.52;;;4.80;99.90;;;;;;5091164;28;20024;-75
2021/12/22 16:04:51;;;;;;;14.35;10.45;;;4.80;99.90;;;;;;5091101;28;20073;-74
2021/12/22 16:07:17;;;;;;;20.35;9.98;;;4.80;99.90;;;;;;5089708;28;20131;-74
2021/12/22 16:09:43;;;;;;;18.42;10.65;;;4.80;99.90;;;;;;5090982;28;20106;-76
2021/12/22 16:12:09;;;;;;;14.52;10.35;;;4.80;99.90;;;;;;5100178;28;20028;-76
2021/12/22 16:14:35;;;;;;;17.50;11.07;;;4.90;99.90;;;;;;5090192;28;20062;-75
2021/12/22 16:17:01;;;;;;;17.30;11.13;;;4.90;99.90;;;;;;5090138;28;20036;-75
2021/12/22 16:19:26;;;;;;;17.40;10.88;;;4.90;99.90;;;;;;5091474;28;20063;-74
2021/12/22 16:21:52;;;;;;;14.45;10.52;;;5.00;99.90;;;;;;5089696;28;20036;-75
2021/12/22 16:24:18;;;;;;;14.43;10.23;;;5.00;99.90;;;;;;5091652;28;20362;-75
2021/12/22 16:26:44;;;;;;;15.13;10.65;;;5.00;99.90;;;;;;5090044;28;20058;-76
2021/12/22 16:29:09;;;;;;;19.40;11.43;;;5.10;99.90;;;;;;5091388;28;20031;-75
2021/12/22 16:31:35;;;;;;;17.70;11.45;;;5.10;99.90;;;;;;5090599;28;20035;-75
2021/12/22 16:34:01;;;;;;;15.88;10.48;;;5.10;99.90;;;;;;5090935;28;20500;-75
2021/12/22 16:36:27;;;;;;;16.92;10.02;;;5.20;99.90;;;;;;5089540;28;20050;-75
2021/12/22 16:38:53;;;;;;;13.20;10.30;;;5.20;99.90;;;;;;5091356;28;20066;-74
2021/12/22 16:41:20;;;;;;;15.45;10.02;;;5.20;99.90;;;;;;5088536;28;20064;-79
2021/12/22 16:43:46;;;;;;;18.27;10.80;;;5.20;99.90;;;;;;5089713;28;20036;-75
2021/12/22 16:46:12;;;;;;;20.95;10.32;;;5.20;99.90;;;;;;5089663;28;20028;-75
2021/12/22 16:48:38;;;;;;;13.15;9.82;;;5.30;99.90;;;;;;5090344;28;20401;-75
2021/12/22 16:51:03;;;;;;;17.60;10.63;;;5.30;99.90;;;;;;5089269;28;20030;-74
2021/12/22 16:53:29;;;;;;;19.20;9.48;;;5.30;99.90;;;;;;5091123;28;20397;-74
2021/12/22 16:55:55;;;;;;;18.23;10.65;;;5.30;99.90;;;;;;5089427;28;20089;-75
2021/12/22 16:58:21;;;;;;;12.48;9.48;;;5.30;99.90;;;;;;5090908;28;20444;-75
2021/12/22 17:00:48;;;;;;;13.65;10.00;;;5.30;99.90;;;;;;5089202;28;20032;-75
2021/12/22 17:03:14;;;;;;;17.00;10.52;;;5.30;99.90;;;;;;5090305;28;20027;-75
2021/12/22 17:05:45;;;;;;;14.77;10.20;;;5.30;99.90;;;;;;5089105;28;20032;-75
2021/12/22 17:08:11;;;;;;;13.57;10.43;;;5.30;99.90;;;;;;5090735;28;20548;-74
2021/12/22 17:10:38;;;;;;;15.80;9.80;;;5.30;99.90;;;;;;5089222;28;20028;-75
2021/12/22 17:13:06;;;;;;;17.83;9.48;;;5.20;99.90;;;;;;5090409;28;20593;-74
2021/12/22 17:15:32;;;;;;;22.65;10.23;;;5.20;99.90;;;;;;5088660;28;20492;-75
2021/12/22 17:18:00;;;;;;;15.85;9.95;;;5.30;99.90;;;;;;5090112;28;20051;-74
2021/12/22 17:20:27;;;;;;;15.48;10.27;;;5.30;99.90;;;;;;5088770;28;20379;-74
2021/12/22 17:22:52;;;;;;;16.17;10.25;;;5.30;99.90;;;;;;5083954;28;20024;-75
2021/12/22 17:25:21;;;;;;;18.33;9.95;;;5.30;99.90;;;;;;5089473;28;20449;-74
2021/12/22 17:27:48;;;;;;;16.33;10.98;;;5.20;99.90;;;;;;5089859;28;20028;-75
2021/12/22 17:30:20;;;;;;;19.33;10.27;;;5.20;99.90;;;;;;5090297;28;20032;-75
2021/12/22 17:32:46;;;;;;;16.10;10.68;;;5.20;99.90;;;;;;5089407;28;20028;-76
2021/12/22 17:35:13;;;;;;;14.95;10.38;;;5.10;99.90;;;;;;5089240;28;20460;-75
2021/12/22 17:37:39;;;;;;;18.27;10.63;;;5.20;99.90;;;;;;5089491;28;20028;-75
2021/12/22 17:40:08;;;;;;;16.50;10.55;;;5.20;99.90;;;;;;5088821;28;20081;-75
2021/12/22 17:42:34;;;;;;;16.00;10.90;;;5.30;99.90;;;;;;5086752;28;20205;-75
2021/12/22 17:44:59;;;;;;;17.65;11.45;;;5.30;99.90;;;;;;5089137;28;21023;-76
2021/12/22 17:47:25;;;;;;;15.27;11.05;;;5.30;99.90;;;;;;5078091;28;20115;-75
2021/12/22 17:49:51;;;;;;;19.00;10.95;;;5.30;99.90;;;;;;5089216;28;20032;-75
2021/12/22 17:52:16;;;;;;;18.23;10.85;;;5.30;99.90;;;;;;5089001;28;20026;-75
2021/12/22 17:54:43;;;;;;;15.50;11.00;;;5.30;99.90;;;;;;5089172;28;20082;-74
2021/12/22 17:57:09;;;;;;;24.92;13.02;;;5.30;99.90;;;;;;5088755;28;20506;-77
2021/12/22 17:59:35;;;;;;;22.58;14.90;;;5.20;99.90;;;;;;5088923;28;20027;-75
2021/12/22 18:02:01;;;;;;;15.77;10.75;;;5.20;99.90;;;;;;5079837;28;20031;-75
2021/12/22 18:04:27;;;;;;;14.43;10.75;;;5.20;99.90;;;;;;5089956;28;20032;-75
2021/12/22 18:06:53;;;;;;;17.52;11.38;;;5.20;99.90;;;;;;5087547;28;20030;-75
2021/12/22 18:09:19;;;;;;;18.55;10.75;;;5.20;99.90;;;;;;5089485;28;20036;-74
2021/12/22 18:11:48;;;;;;;14.95;10.50;;;5.20;99.90;;;;;;5088072;28;20028;-74
2021/12/22 18:14:16;;;;;;;19.13;10.73;;;5.30;99.90;;;;;;5089375;28;20123;-75
2021/12/22 18:16:44;;;;;;;12.93;10.70;;;5.30;99.90;;;;;;5087490;28;20036;-76
2021/12/22 18:19:10;;;;;;;14.98;10.32;;;5.30;99.90;;;;;;5087711;28;20115;-75
2021/12/22 18:21:35;;;;;;;15.50;10.40;;;5.30;99.90;;;;;;5087244;28;20548;-76
2021/12/22 18:24:01;;;;;;;15.88;11.00;;;5.30;99.90;;;;;;5089413;28;20031;-76
2021/12/22 18:26:27;;;;;;;15.23;11.15;;;5.30;99.90;;;;;;5086588;28;20059;-76
2021/12/22 18:28:53;;;;;;;14.40;11.20;;;5.40;99.90;;;;;;5089176;28;20022;-74
2021/12/22 18:31:18;;;;;;;17.10;11.18;;;5.40;99.90;;;;;;5087692;28;20054;-76
2021/12/22 18:33:46;;;;;;;15.57;10.60;;;5.40;99.90;;;;;;5089006;28;20024;-77
2021/12/22 18:36:13;;;;;;;15.63;11.05;;;5.40;99.90;;;;;;5086263;28;20119;-76
2021/12/22 18:38:42;;;;;;;16.42;10.65;;;5.40;99.90;;;;;;5088951;28;20028;-75
2021/12/22 18:41:24;;;;;;;17.48;11.27;;;5.40;99.90;;;;;;5086897;28;20027;-76
2021/12/22 18:43:52;;;;;;;15.20;10.60;;;5.50;99.90;;;;;;5082914;28;20120;-75
2021/12/22 18:46:22;;;;;;;16.15;10.48;;;5.50;99.90;;;;;;5087739;28;20443;-75
2021/12/22 18:48:48;;;;;;;22.67;11.82;;;5.50;99.90;;;;;;5088702;28;20032;-75
2021/12/22 18:51:14;;;;;;;14.75;10.48;;;5.50;99.90;;;;;;5080504;28;20020;-75
2021/12/22 18:53:40;;;;;;;12.88;10.43;;;5.50;99.90;;;;;;5079768;28;20074;-75
2021/12/22 18:56:06;;;;;;;16.67;10.40;;;5.50;99.90;;;;;;5079832;28;20032;-75
2021/12/22 18:58:33;;;;;;;13.45;10.43;;;5.50;99.90;;;;;;5088712;28;20032;-74
2021/12/22 19:00:59;;;;;;;20.70;11.40;;;5.50;99.90;;;;;;5088392;28;20032;-75
2021/12/22 19:03:26;;;;;;;16.75;11.20;;;5.40;99.90;;;;;;5088495;28;20032;-76
2021/12/22 19:05:53;;;;;;;14.65;10.55;;;5.40;99.90;;;;;;5081189;28;20564;-75
2021/12/22 19:08:19;;;;;;;14.88;11.18;;;5.40;99.90;;;;;;5088526;28;20070;-75
2021/12/22 19:10:47;;;;;;;17.83;10.73;;;5.40;99.90;;;;;;5084322;28;20052;-75
2021/12/22 19:13:14;;;;;;;16.42;11.25;;;5.40;99.90;;;;;;5089334;28;20020;-76
2021/12/22 19:15:39;;;;;;;15.50;11.20;;;5.40;99.90;;;;;;5086698;28;20060;-75
2021/12/22 19:18:05;;;;;;;15.05;11.20;;;5.30;99.90;;;;;;5086908;28;20025;-76
2021/12/22 19:20:31;;;;;;;15.55;10.60;;;5.40;99.90;;;;;;5087084;28;20035;-76
2021/12/22 19:22:58;;;;;;;14.07;10.43;;;5.40;99.90;;;;;;5088054;28;20073;-76
2021/12/22 19:25:24;;;;;;;15.27;10.70;;;5.30;99.90;;;;;;5087118;28;20081;-76
2021/12/22 19:27:50;;;;;;;12.32;9.68;;;5.30;99.90;;;;;;5085854;28;20028;-77
2021/12/22 19:30:22;;;;;;;14.23;10.18;;;5.40;99.90;;;;;;5078395;28;20048;-77
2021/12/22 19:32:49;;;;;;;16.85;11.23;;;5.40;99.90;;;;;;5081620;28;20089;-75
2021/12/22 19:35:16;;;;;;;17.15;11.45;;;5.40;99.90;;;;;;5085706;28;20047;-75
2021/12/22 19:37:43;;;;;;;22.58;11.38;;;5.40;99.90;;;;;;5087395;28;20032;-74
2021/12/22 19:40:12;;;;;;;24.80;12.90;;;5.40;99.90;;;;;;5084167;28;20016;-77
2021/12/22 19:42:38;;;;;;;36.25;18.63;;;5.30;99.90;;;;;;5085267;28;20425;-77
2021/12/22 19:45:06;;;;;;;89.13;42.10;;;5.40;99.90;;;;;;5087732;28;20025;-74
2021/12/22 19:47:32;;;;;;;18.17;12.48;;;5.40;99.90;;;;;;5087139;28;20058;-76
2021/12/22 19:49:58;;;;;;;19.48;12.15;;;5.40;99.90;;;;;;5086700;28;20101;-74
2021/12/22 19:52:24;;;;;;;15.60;10.98;;;5.40;99.90;;;;;;5085873;28;20024;-77
2021/12/22 19:54:50;;;;;;;22.55;15.55;;;5.40;99.90;;;;;;5086255;28;20027;-76
2021/12/22 19:57:16;;;;;;;14.98;11.32;;;5.40;99.90;;;;;;5090341;28;21515;-77
2021/12/22 19:59:41;;;;;;;20.08;12.15;;;5.40;99.90;;;;;;5092623;28;20024;-78
2021/12/22 20:02:08;;;;;;;17.33;10.68;;;5.40;99.90;;;;;;5035136;28;20045;-79
2021/12/22 20:04:34;;;;;;;23.15;13.23;;;5.40;99.90;;;;;;5045740;28;20025;-75
2021/12/22 20:06:59;;;;;;;16.17;10.48;;;5.40;99.90;;;;;;5021815;28;20511;-75
2021/12/22 20:09:25;;;;;;;15.73;10.25;;;5.30;99.90;;;;;;5030275;28;20029;-76
2021/12/22 20:11:51;;;;;;;19.77;13.40;;;5.30;99.90;;;;;;5020480;28;20113;-76
2021/12/22 20:14:16;;;;;;;22.13;11.85;;;5.30;99.90;;;;;;5029173;28;20050;-74
2021/12/22 20:16:43;;;;;;;25.05;13.60;;;5.30;99.90;;;;;;5021842;28;20037;-75
2021/12/22 20:19:09;;;;;;;16.08;11.85;;;5.30;99.90;;;;;;5028662;28;20032;-74
2021/12/22 20:21:36;;;;;;;17.60;11.00;;;5.30;99.90;;;;;;5026262;28;20021;-75
2021/12/22 20:24:02;;;;;;;20.20;11.70;;;5.20;99.90;;;;;;5031340;28;20021;-75
2021/12/22 20:26:28;;;;;;;12.48;10.48;;;5.20;99.90;;;;;;5025189;28;20064;-75
2021/12/22 20:29:00;;;;;;;13.95;10.27;;;5.30;99.90;;;;;;5018268;28;20040;-75
2021/12/22 20:31:27;;;;;;;22.40;11.93;;;5.30;99.90;;;;;;5028211;28;20080;-74